Time;durP1;ratioP1;P1;durP2;ratioP2;P2;SDS_P1;SDS_P2;PMS_P1;PMS_P2;Temp;Humidity;BMP_temperature;BMP_pressure;BME280_temperature;BME280_humidity;BME280_pressure;Samples;Min_cycle;Max_cycle;Signal;HPM_P1;HPM_P2
2021/07/27 00:00:53;;;;;;;13.25;8.55;;;;;;;23.81;64.30;99958.53;5033415;28;20052;-95
2021/07/27 00:03:19;;;;;;;15.88;8.68;;;;;;;23.89;64.07;99966.38;5015659;28;20026;-95
2021/07/27 00:05:44;;;;;;;12.45;8.52;;;;;;;23.99;63.72;99966.00;5033548;28;20092;-96
2021/07/27 00:08:10;;;;;;;14.82;8.57;;;;;;;23.90;64.34;99962.69;5015653;28;20117;-96
2021/07/27 00:10:37;;;;;;;20.60;9.82;;;;;;;23.83;64.18;99972.56;5015812;28;20029;-96
2021/07/27 00:13:04;;;;;;;13.40;8.68;;;;;;;23.72;64.83;99971.25;5016001;28;20032;-94
2021/07/27 00:15:29;;;;;;;19.48;9.80;;;;;;;23.81;64.76;99974.63;5033354;28;20021;-95
2021/07/27 00:17:55;;;;;;;15.90;8.55;;;;;;;23.81;64.79;99961.22;5015626;28;20024;-94
2021/07/27 00:20:20;;;;;;;15.20;8.52;;;;;;;23.83;64.85;99964.50;5032851;28;20479;-96
2021/07/27 00:22:46;;;;;;;21.52;9.18;;;;;;;23.89;64.95;99961.03;5015474;28;20633;-96
2021/07/27 00:25:16;;;;;;;15.57;9.50;;;;;;;23.91;64.52;99961.66;5015476;28;20025;-95
2021/07/27 00:27:42;;;;;;;11.98;8.55;;;;;;;23.86;64.59;99962.25;5015667;28;20080;-95
2021/07/27 00:30:08;;;;;;;19.90;9.82;;;;;;;23.83;64.82;99967.19;5015336;28;20167;-95
2021/07/27 00:32:41;;;;;;;19.92;10.25;;;;;;;23.90;64.63;99962.69;5015523;28;20064;-95
2021/07/27 00:35:08;;;;;;;20.33;10.15;;;;;;;23.57;65.50;99958.00;5015298;28;20017;-95
2021/07/27 00:37:34;;;;;;;13.02;8.85;;;;;;;23.71;65.26;99959.69;5032882;28;20022;-96
2021/07/27 00:40:01;;;;;;;14.40;8.88;;;;;;;23.77;64.60;99955.38;5015332;28;20030;-96
2021/07/27 00:42:26;;;;;;;17.23;9.15;;;;;;;23.75;65.00;99957.44;5015153;28;20043;-96
2021/07/27 00:44:53;;;;;;;17.42;8.63;;;;;;;23.74;64.04;99953.94;5015171;28;20468;-95
2021/07/27 00:47:19;;;;;;;20.15;8.95;;;;;;;23.84;64.23;99950.09;5015170;28;20029;-95
2021/07/27 00:49:44;;;;;;;13.25;7.70;;;;;;;23.83;63.86;99945.75;5015143;28;20418;-96
2021/07/27 00:52:11;;;;;;;17.17;8.48;;;;;;;23.66;64.09;99946.09;5014975;28;20486;-95
2021/07/27 00:54:37;;;;;;;14.48;7.97;;;;;;;23.81;63.53;99937.09;5014761;28;20022;-96
2021/07/27 00:57:03;;;;;;;12.40;8.05;;;;;;;23.81;62.86;99939.75;5015087;28;20025;-96
2021/07/27 00:59:29;;;;;;;10.20;7.18;;;;;;;23.74;62.97;99932.50;5015024;28;20021;-96
2021/07/27 01:01:55;;;;;;;11.27;7.53;;;;;;;23.74;62.42;99924.47;5014838;28;20488;-96
2021/07/27 01:04:21;;;;;;;12.23;7.47;;;;;;;23.66;62.61;99927.34;5014935;28;20036;-96
2021/07/27 01:06:46;;;;;;;14.60;7.00;;;;;;;23.66;62.29;99915.78;5014967;28;20022;-96
2021/07/27 01:09:13;;;;;;;17.33;7.40;;;;;;;23.75;62.40;99912.69;5014887;28;20021;-95
2021/07/27 01:11:42;;;;;;;14.10;7.43;;;;;;;23.78;61.96;99906.16;5015108;28;20061;-96
2021/07/27 01:14:08;;;;;;;9.25;6.60;;;;;;;23.80;61.52;99895.25;5014721;28;20871;-95
2021/07/27 01:16:35;;;;;;;14.52;8.18;;;;;;;23.86;61.50;99908.66;5014956;28;20060;-96
2021/07/27 01:38:11;;;;;;;9.68;7.63;;;;;;;23.80;63.55;99909.47;5036410;28;20063;-96
2021/07/27 01:43:21;;;;;;;14.50;7.13;;;;;;;23.78;64.37;99913.38;5036146;28;20029;-96
2021/07/27 01:45:47;;;;;;;13.07;7.38;;;;;;;23.76;63.83;99913.53;5018452;28;20467;-95
2021/07/27 01:48:13;;;;;;;10.30;7.25;;;;;;;23.71;63.94;99906.09;5018534;28;20029;-95
2021/07/27 01:50:40;;;;;;;9.40;7.18;;;;;;;23.70;64.22;99911.69;5018598;28;20376;-95
2021/07/27 01:53:05;;;;;;;10.35;6.63;;;;;;;23.69;64.20;99918.88;5018526;28;20060;-96
2021/07/27 01:55:34;;;;;;;8.25;6.72;;;;;;;23.59;64.23;99913.06;5017912;28;20053;-96
2021/07/27 01:58:00;;;;;;;11.90;6.97;;;;;;;23.48;64.23;99911.81;5018511;28;20124;-96
2021/07/27 02:00:25;;;;;;;12.25;6.20;;;;;;;23.24;64.46;99915.81;5018067;28;20124;-96
2021/07/27 02:02:51;;;;;;;11.95;6.63;;;;;;;23.25;63.60;99917.47;5018094;28;20440;-96
2021/07/27 02:05:16;;;;;;;6.72;5.00;;;;;;;23.33;63.12;99924.53;5018037;28;20021;-96
2021/07/27 02:07:45;;;;;;;8.30;5.38;;;;;;;23.38;62.66;99921.22;5017983;28;20076;-96
2021/07/27 02:10:13;;;;;;;8.32;6.10;;;;;;;23.28;63.43;99911.75;5017988;28;20029;-95
2021/07/27 02:12:40;;;;;;;9.75;7.15;;;;;;;23.28;63.92;99913.56;5018369;28;20120;-96
2021/07/27 02:15:07;;;;;;;12.10;7.82;;;;;;;23.40;63.70;99916.50;5035744;28;20026;-96
2021/07/27 02:17:33;;;;;;;9.73;7.28;;;;;;;23.38;64.62;99914.03;5017929;28;20021;-96
2021/07/27 02:20:00;;;;;;;10.40;6.72;;;;;;;23.35;64.72;99914.44;5017883;28;20091;-95
2021/07/27 02:22:25;;;;;;;9.52;5.82;;;;;;;23.11;64.73;99911.22;5035550;28;20056;-95
2021/07/27 02:24:51;;;;;;;10.10;6.03;;;;;;;23.09;64.97;99909.78;5017711;28;20464;-96
2021/07/27 02:27:16;;;;;;;8.02;5.70;;;;;;;23.15;65.18;99906.31;5035255;28;20034;-96
2021/07/27 02:29:41;;;;;;;6.90;5.70;;;;;;;23.17;65.34;99904.25;5017745;28;20487;-94
2021/07/27 02:32:07;;;;;;;6.25;5.43;;;;;;;23.13;64.70;99903.81;5017954;28;20460;-96
2021/07/27 02:34:32;;;;;;;10.32;6.07;;;;;;;22.95;65.27;99903.50;5017565;28;20574;-95
2021/07/27 02:37:00;;;;;;;10.88;5.60;;;;;;;22.94;65.32;99904.50;5017787;28;20021;-96
2021/07/27 02:39:25;;;;;;;8.73;6.45;;;;;;;22.87;65.06;99904.47;5017432;28;20033;-95
2021/07/27 02:41:51;;;;;;;8.27;6.65;;;;;;;22.88;65.54;99902.63;5016246;28;20498;-95
2021/07/27 02:44:16;;;;;;;10.90;7.07;;;;;;;22.97;65.56;99910.31;5017245;28;20021;-96
2021/07/27 02:46:41;;;;;;;9.30;7.57;;;;;;;22.93;66.23;99901.00;5017735;28;20029;-95
2021/07/27 02:49:07;;;;;;;8.77;6.90;;;;;;;22.94;66.03;99907.19;5017292;28;20025;-96
2021/07/27 02:51:32;;;;;;;14.25;7.22;;;;;;;22.94;66.41;99899.97;5017435;28;20025;-95
2021/07/27 02:53:58;;;;;;;9.52;7.05;;;;;;;22.97;66.20;99899.59;5017231;28;20506;-96
2021/07/27 02:56:23;;;;;;;16.90;8.20;;;;;;;22.92;66.24;99902.03;5017216;28;20026;-96
2021/07/27 02:58:49;;;;;;;11.63;7.05;;;;;;;22.94;66.12;99894.63;5017401;28;20025;-95
2021/07/27 03:01:14;;;;;;;9.02;6.93;;;;;;;22.58;67.62;99895.63;5017149;28;20067;-96
2021/07/27 03:03:40;;;;;;;9.48;7.10;;;;;;;22.42;68.06;99887.91;5017412;28;20025;-96
2021/07/27 03:06:05;;;;;;;9.48;6.68;;;;;;;22.59;67.99;99891.13;5017034;28;20021;-96
2021/07/27 03:11:15;;;;;;;12.13;8.25;;;;;;;22.73;66.64;99900.09;5034888;28;20488;-94
2021/07/27 03:13:41;;;;;;;11.38;8.20;;;;;;;22.72;66.89;99891.19;5016783;28;20025;-95
2021/07/27 03:16:06;;;;;;;11.80;8.25;;;;;;;22.74;66.74;99899.03;5017181;28;20472;-96
2021/07/27 03:18:32;;;;;;;14.88;8.30;;;;;;;22.74;66.93;99894.50;5034623;28;20442;-94
2021/07/27 03:20:58;;;;;;;12.05;7.75;;;;;;;22.75;66.96;99898.03;5016758;28;20033;-96
2021/07/27 03:23:29;;;;;;;14.50;9.02;;;;;;;22.55;67.83;99889.84;5016886;28;20453;-95
2021/07/27 03:25:55;;;;;;;15.18;8.90;;;;;;;22.57;67.05;99896.69;5016778;28;20071;-96
2021/07/27 03:28:20;;;;;;;15.18;9.02;;;;;;;22.42;67.95;99897.78;5016696;28;20034;-95
2021/07/27 03:30:46;;;;;;;11.82;9.65;;;;;;;22.39;67.84;99888.28;5016804;28;20018;-96
2021/07/27 03:33:14;;;;;;;11.27;8.48;;;;;;;22.52;67.86;99891.06;5016694;28;20551;-95
2021/07/27 03:35:40;;;;;;;10.25;8.60;;;;;;;22.52;67.41;99891.06;5016624;28;20025;-96
2021/07/27 03:38:05;;;;;;;12.32;8.77;;;;;;;22.56;66.72;99892.34;5016611;28;20033;-96
2021/07/27 03:40:34;;;;;;;12.20;8.63;;;;;;;22.58;66.87;99890.28;5016215;28;20044;-95
2021/07/27 03:43:00;;;;;;;10.20;7.40;;;;;;;22.55;66.52;99884.50;5016513;28;20017;-95
2021/07/27 03:45:25;;;;;;;9.25;7.53;;;;;;;22.54;66.40;99881.00;5016467;28;20033;-96
2021/07/27 03:47:51;;;;;;;11.98;7.63;;;;;;;22.50;66.06;99874.38;5016488;28;20018;-96
2021/07/27 03:50:16;;;;;;;10.75;8.02;;;;;;;22.48;65.61;99873.75;5016328;28;20022;-96
2021/07/27 03:52:41;;;;;;;10.77;7.00;;;;;;;22.50;65.67;99869.03;5015946;28;20076;-95
2021/07/27 03:55:07;;;;;;;13.02;7.50;;;;;;;22.44;65.86;99871.69;5015918;28;20021;-96
2021/07/27 03:57:33;;;;;;;12.25;7.18;;;;;;;22.45;66.09;99867.97;5016272;28;20030;-94
2021/07/27 03:59:58;;;;;;;12.60;8.07;;;;;;;22.45;65.70;99860.75;5015995;28;20079;-95
2021/07/27 04:02:24;;;;;;;8.82;7.20;;;;;;;22.42;65.85;99857.66;5015723;28;20030;-95
2021/07/27 04:04:50;;;;;;;12.38;7.38;;;;;;;22.43;65.85;99860.13;5015923;28;20029;-95
2021/07/27 04:07:16;;;;;;;11.40;7.50;;;;;;;22.37;65.58;99844.88;5016039;28;20048;-96
2021/07/27 04:09:42;;;;;;;16.58;7.22;;;;;;;22.34;65.21;99845.28;5015881;28;20260;-96
2021/07/27 04:12:07;;;;;;;9.10;7.15;;;;;;;22.32;65.61;99847.31;5033450;28;20647;-96
2021/07/27 04:14:36;;;;;;;11.70;7.55;;;;;;;22.31;65.86;99846.47;5033286;28;20025;-95
2021/07/27 04:17:02;;;;;;;11.60;7.38;;;;;;;22.17;65.87;99837.47;5015771;28;20029;-95
2021/07/27 04:19:27;;;;;;;9.52;7.22;;;;;;;22.20;66.23;99844.31;5015543;28;20086;-96
2021/07/27 04:21:52;;;;;;;12.95;7.60;;;;;;;22.16;66.11;99835.84;5015575;28;20057;-95
2021/07/27 04:24:18;;;;;;;7.75;6.95;;;;;;;22.17;65.57;99837.47;5015650;28;20143;-96
2021/07/27 04:26:48;;;;;;;12.95;7.18;;;;;;;22.16;65.46;99830.50;5015903;28;20030;-95
2021/07/27 04:29:14;;;;;;;8.82;6.68;;;;;;;22.12;65.68;99837.25;5015760;28;20029;-94
2021/07/27 04:31:58;;;;;;;12.63;7.63;;;;;;;22.01;65.01;99843.13;5032957;28;20031;-96
2021/07/27 04:34:23;;;;;;;10.75;6.60;;;;;;;21.90;65.81;99831.13;5015391;28;20069;-96
2021/07/27 04:36:50;;;;;;;11.45;7.20;;;;;;;21.87;65.89;99838.69;5033124;28;20034;-96
2021/07/27 04:39:15;;;;;;;9.13;7.45;;;;;;;21.56;66.67;99834.47;5033069;28;20091;-94
2021/07/27 04:41:40;;;;;;;12.43;7.45;;;;;;;21.68;66.58;99835.63;5015379;28;20471;-95
2021/07/27 04:44:06;;;;;;;10.18;7.25;;;;;;;21.75;66.06;99831.16;5014956;28;20029;-95
2021/07/27 04:46:36;;;;;;;8.48;7.45;;;;;;;21.77;65.98;99837.16;5015375;28;20033;-95
2021/07/27 04:49:01;;;;;;;11.63;6.93;;;;;;;21.82;65.92;99839.28;5015172;28;20067;-96
2021/07/27 04:51:30;;;;;;;12.82;7.07;;;;;;;21.85;65.84;99841.53;5015394;28;20021;-96
2021/07/27 04:53:58;;;;;;;10.77;7.30;;;;;;;21.84;65.47;99841.72;5015208;28;20029;-96
2021/07/27 04:56:25;;;;;;;8.38;6.60;;;;;;;21.82;65.11;99835.75;5015357;28;20033;-96
2021/07/27 04:58:51;;;;;;;9.73;7.28;;;;;;;21.81;65.52;99834.09;5015328;28;20503;-95
2021/07/27 05:01:16;;;;;;;9.88;7.03;;;;;;;21.69;65.67;99826.59;5015025;28;20033;-96
2021/07/27 05:03:42;;;;;;;10.73;6.57;;;;;;;21.72;65.51;99833.38;5014314;28;20057;-96
2021/07/27 05:06:07;;;;;;;14.57;6.72;;;;;;;21.73;65.48;99838.56;5015065;28;20527;-96
2021/07/27 05:08:33;;;;;;;7.72;6.10;;;;;;;21.70;65.65;99833.59;5015025;28;20112;-96
2021/07/27 05:11:01;;;;;;;13.15;7.03;;;;;;;21.70;65.21;99843.44;5015368;28;20365;-96
2021/07/27 05:13:26;;;;;;;7.75;5.80;;;;;;;21.65;65.05;99840.53;5014710;28;20025;-96
2021/07/27 05:15:52;;;;;;;8.85;5.82;;;;;;;21.65;64.68;99830.66;5015213;28;20048;-96
2021/07/27 05:18:17;;;;;;;11.32;5.60;;;;;;;21.66;64.04;99829.63;5015175;28;20116;-95
2021/07/27 05:20:45;;;;;;;9.05;5.70;;;;;;;21.71;64.39;99840.59;5015020;28;20120;-94
2021/07/27 05:23:10;;;;;;;7.88;5.88;;;;;;;21.74;63.69;99829.53;5015002;28;20065;-95
2021/07/27 05:25:35;;;;;;;6.63;4.78;;;;;;;21.77;63.72;99822.97;5014932;28;20056;-96
2021/07/27 05:28:01;;;;;;;11.20;5.30;;;;;;;21.82;63.91;99815.22;5014801;28;20474;-96
2021/07/27 05:30:26;;;;;;;9.27;5.00;;;;;;;21.90;63.20;99823.09;5032554;28;20025;-96
2021/07/27 05:32:51;;;;;;;10.98;5.63;;;;;;;22.04;63.41;99821.34;5014910;28;20029;-96
2021/07/27 05:35:17;;;;;;;7.47;5.03;;;;;;;22.16;63.33;99822.47;5015025;28;20063;-95
2021/07/27 05:37:44;;;;;;;12.48;5.78;;;;;;;22.22;63.13;99814.72;5014763;28;20116;-95
2021/07/27 05:40:10;;;;;;;8.70;5.00;;;;;;;22.42;62.08;99817.56;5014527;28;20029;-96
2021/07/27 05:42:35;;;;;;;10.70;5.05;;;;;;;22.45;61.23;99815.28;5014576;28;20033;-96
2021/07/27 05:45:00;;;;;;;6.90;4.80;;;;;;;22.45;61.16;99811.78;5014455;28;20018;-96
2021/07/27 05:47:26;;;;;;;8.50;5.22;;;;;;;22.64;60.76;99813.75;5014601;28;20044;-96
2021/07/27 05:49:51;;;;;;;8.35;4.60;;;;;;;22.80;60.36;99814.47;5014640;28;20029;-95
2021/07/27 05:52:16;;;;;;;5.90;4.40;;;;;;;22.93;60.01;99804.66;5014873;28;20021;-96
2021/07/27 05:54:44;;;;;;;10.32;4.80;;;;;;;22.88;60.14;99809.75;5014302;28;20490;-95
2021/07/27 05:57:14;;;;;;;10.55;5.22;;;;;;;23.06;59.75;99805.75;5014254;28;20579;-96
2021/07/27 05:59:40;;;;;;;8.73;5.20;;;;;;;23.17;59.73;99811.34;5014232;28;20022;-94
2021/07/27 06:02:06;;;;;;;8.57;4.85;;;;;;;23.43;59.45;99801.72;5014120;28;20030;-96
2021/07/27 06:04:31;;;;;;;6.75;4.75;;;;;;;23.64;58.55;99802.59;5014183;28;20117;-95
2021/07/27 06:06:56;;;;;;;16.17;7.07;;;;;;;23.65;58.85;99794.34;5014296;28;20479;-95
2021/07/27 06:09:22;;;;;;;15.52;6.30;;;;;;;23.68;59.13;99801.97;5014229;28;20476;-94
2021/07/27 06:11:48;;;;;;;11.05;6.95;;;;;;;23.69;59.42;99789.41;5014111;28;20555;-96
2021/07/27 06:14:13;;;;;;;14.80;7.03;;;;;;;23.91;59.28;99792.75;5014836;28;20025;-94
2021/07/27 06:16:39;;;;;;;11.77;5.82;;;;;;;23.99;59.07;99794.38;5017115;28;20029;-95
2021/07/27 06:19:06;;;;;;;12.25;5.90;;;;;;;23.95;58.93;99796.66;5035472;28;20476;-95
2021/07/27 06:21:32;;;;;;;8.63;5.70;;;;;;;23.86;58.78;99789.88;5017777;28;20040;-94
2021/07/27 06:23:58;;;;;;;9.80;6.03;;;;;;;24.04;58.30;99799.97;5017383;28;20025;-95
2021/07/27 06:26:23;;;;;;;8.05;6.43;;;;;;;24.06;58.34;99792.53;5035254;28;20029;-94
2021/07/27 06:28:48;;;;;;;11.95;6.38;;;;;;;24.04;58.36;99800.78;5017594;28;20480;-95
2021/07/27 06:31:14;;;;;;;13.02;6.72;;;;;;;23.36;59.61;99799.06;5035236;28;20044;-95
2021/07/27 06:33:44;;;;;;;10.40;6.53;;;;;;;23.78;58.98;99800.78;5017404;28;20414;-94
2021/07/27 06:36:10;;;;;;;9.57;7.03;;;;;;;23.52;60.14;99794.34;5017394;28;20361;-93
2021/07/27 06:38:36;;;;;;;9.25;6.45;;;;;;;23.65;59.44;99796.19;5017515;28;20212;-96
2021/07/27 06:41:05;;;;;;;15.98;7.53;;;;;;;23.56;59.84;99800.94;5017198;28;20238;-94
2021/07/27 06:43:30;;;;;;;15.18;7.85;;;;;;;23.21;60.68;99793.03;5017174;28;20033;-94
2021/07/27 06:45:56;;;;;;;10.02;7.40;;;;;;;23.11;60.68;99793.41;5017333;28;20025;-95
2021/07/27 06:48:22;;;;;;;13.73;8.90;;;;;;;22.91;60.89;99801.34;5017548;28;20047;-94
2021/07/27 06:50:48;;;;;;;14.10;8.85;;;;;;;23.29;60.26;99795.53;5017137;28;20029;-93
2021/07/27 06:53:14;;;;;;;11.63;8.27;;;;;;;23.45;60.05;99801.53;5016945;28;20033;-95
2021/07/27 06:55:39;;;;;;;11.27;8.43;;;;;;;23.58;59.94;99804.25;5016915;28;20522;-95
2021/07/27 06:58:04;;;;;;;13.48;7.60;;;;;;;23.45;59.95;99807.72;5034610;28;20499;-93
2021/07/27 07:00:30;;;;;;;12.10;8.32;;;;;;;23.62;59.59;99807.31;5016663;28;20064;-94
2021/07/27 07:02:55;;;;;;;17.58;8.65;;;;;;;23.68;59.12;99811.88;5017029;28;20021;-95
2021/07/27 07:05:20;;;;;;;12.35;7.05;;;;;;;23.83;58.67;99817.06;5016832;28;20021;-95
2021/07/27 07:07:46;;;;;;;11.23;6.43;;;;;;;23.89;58.24;99821.59;5016637;28;20434;-94
2021/07/27 07:10:11;;;;;;;10.60;6.90;;;;;;;23.47;58.54;99824.41;5034585;28;20490;-95
2021/07/27 07:12:37;;;;;;;12.77;6.50;;;;;;;23.91;57.31;99812.34;5016456;28;20497;-94
2021/07/27 07:15:03;;;;;;;12.65;7.28;;;;;;;24.01;57.41;99808.41;5016418;28;20029;-94
2021/07/27 07:17:28;;;;;;;16.17;7.07;;;;;;;24.29;56.62;99816.22;5016617;28;20067;-94
2021/07/27 07:19:54;;;;;;;18.25;6.88;;;;;;;24.79;55.45;99816.56;5034071;28;20691;-95
2021/07/27 07:22:20;;;;;;;15.57;7.75;;;;;;;24.62;54.89;99810.00;5016344;28;20120;-94
2021/07/27 07:24:46;;;;;;;10.63;5.85;;;;;;;24.73;55.17;99812.88;5016253;28;20115;-93
2021/07/27 07:27:12;;;;;;;11.93;6.13;;;;;;;24.71;54.90;99814.94;5015484;28;20021;-95
2021/07/27 07:29:38;;;;;;;10.68;5.30;;;;;;;25.37;53.35;99822.94;5016342;28;20364;-94
2021/07/27 07:32:03;;;;;;;8.55;4.88;;;;;;;26.08;52.61;99809.22;5016300;28;20080;-94
2021/07/27 07:34:29;;;;;;;6.57;4.85;;;;;;;26.37;51.44;99814.97;5033811;28;20049;-94
2021/07/27 07:36:54;;;;;;;10.38;5.47;;;;;;;26.17;52.54;99800.88;5016183;28;20025;-95
2021/07/27 07:39:20;;;;;;;13.55;5.45;;;;;;;26.38;50.86;99803.13;5015992;28;20380;-94
2021/07/27 07:41:45;;;;;;;8.57;5.20;;;;;;;26.31;51.02;99808.59;5016805;28;20087;-96
2021/07/27 07:44:11;;;;;;;8.90;5.20;;;;;;;26.21;50.63;99799.41;5033823;28;20057;-94
2021/07/27 07:46:36;;;;;;;10.30;5.30;;;;;;;26.44;50.96;99796.88;5015967;28;20059;-95
2021/07/27 07:49:01;;;;;;;7.47;4.45;;;;;;;26.95;50.12;99797.56;5033555;28;20025;-95
2021/07/27 07:51:27;;;;;;;12.82;4.97;;;;;;;26.88;50.11;99797.66;5033640;28;20435;-95
2021/07/27 07:53:52;;;;;;;6.32;3.80;;;;;;;26.90;49.86;99792.84;5033331;28;20026;-95
2021/07/27 07:56:17;;;;;;;8.02;5.07;;;;;;;26.51;50.56;99808.38;5033475;28;20029;-94
2021/07/27 07:58:44;;;;;;;7.95;4.65;;;;;;;26.35;51.09;99808.16;5033331;28;20480;-93
2021/07/27 08:01:10;;;;;;;13.25;4.50;;;;;;;26.20;51.40;99803.94;5015545;28;20044;-94
2021/07/27 08:03:35;;;;;;;11.82;4.45;;;;;;;26.15;51.05;99798.41;5015501;28;20433;-94
2021/07/27 08:06:00;;;;;;;12.48;4.82;;;;;;;26.11;51.08;99799.91;5015763;28;20022;-95
2021/07/27 08:08:26;;;;;;;11.38;5.60;;;;;;;26.18;51.09;99797.94;5015415;28;20076;-95
2021/07/27 08:10:51;;;;;;;16.38;5.20;;;;;;;26.48;50.26;99790.00;5015298;28;20018;-95
2021/07/27 08:13:16;;;;;;;9.50;4.50;;;;;;;26.73;49.91;99789.13;5015319;28;20056;-95
2021/07/27 08:15:44;;;;;;;9.68;5.00;;;;;;;26.48;50.66;99786.47;5015484;28;20061;-95
2021/07/27 08:18:10;;;;;;;10.02;3.97;;;;;;;26.98;48.63;99793.59;5015453;28;20358;-95
2021/07/27 08:20:35;;;;;;;7.57;3.80;;;;;;;27.24;47.95;99787.06;5032890;28;20251;-95
2021/07/27 08:23:02;;;;;;;8.13;3.53;;;;;;;27.55;47.91;99787.84;5015161;28;20026;-94
2021/07/27 08:25:27;;;;;;;10.80;4.07;;;;;;;27.87;48.25;99775.72;5032886;28;20021;-94
2021/07/27 08:27:53;;;;;;;8.88;3.80;;;;;;;28.53;46.63;99774.78;5032648;28;20109;-95
2021/07/27 08:30:18;;;;;;;5.63;3.20;;;;;;;28.55;46.00;99767.28;5015276;28;20087;-95
2021/07/27 08:32:48;;;;;;;7.63;3.88;;;;;;;29.37;43.20;99771.59;5015024;28;20022;-94
2021/07/27 08:35:15;;;;;;;5.20;3.38;;;;;;;29.45;42.03;99763.06;5014979;28;20484;-94
2021/07/27 08:37:41;;;;;;;6.28;3.70;;;;;;;29.12;42.81;99771.94;5014816;28;20030;-96
2021/07/27 08:40:07;;;;;;;8.55;2.92;;;;;;;28.70;43.95;99777.59;5014915;28;20048;-95
2021/07/27 08:42:33;;;;;;;5.47;3.17;;;;;;;28.60;45.01;99768.19;5015050;28;20026;-95
2021/07/27 08:45:01;;;;;;;6.85;3.25;;;;;;;28.95;44.02;99761.03;5014818;28;20381;-95
2021/07/27 08:47:27;;;;;;;8.23;3.15;;;;;;;28.72;45.10;99767.38;5014781;28;20419;-96
2021/07/27 08:49:55;;;;;;;7.15;3.08;;;;;;;28.87;43.92;99764.94;5014840;28;20113;-96
2021/07/27 08:52:21;;;;;;;5.80;3.17;;;;;;;28.37;45.23;99765.50;5032401;28;20049;-95
2021/07/27 08:54:47;;;;;;;5.43;2.72;;;;;;;28.36;44.90;99767.41;5014674;28;20060;-95
2021/07/27 08:57:14;;;;;;;7.80;3.33;;;;;;;28.62;45.21;99752.56;5014755;28;20476;-95
2021/07/27 08:59:40;;;;;;;4.57;2.40;;;;;;;28.84;44.38;99760.84;5014502;28;20096;-95
2021/07/27 09:02:05;;;;;;;4.13;2.35;;;;;;;28.96;42.54;99757.28;5032309;28;20036;-95
2021/07/27 09:04:31;;;;;;;5.30;2.42;;;;;;;29.03;42.40;99750.69;5032088;28;20021;-95
2021/07/27 09:07:00;;;;;;;4.80;2.63;;;;;;;29.18;41.99;99760.97;5032235;28;20037;-94
2021/07/27 09:09:30;;;;;;;4.85;2.55;;;;;;;29.30;41.06;99757.38;5014525;28;20018;-94
2021/07/27 09:11:58;;;;;;;3.00;2.33;;;;;;;29.02;42.71;99753.63;5014540;28;20031;-95
2021/07/27 09:14:23;;;;;;;7.95;2.45;;;;;;;28.88;42.15;99750.38;5032158;28;20025;-94
2021/07/27 09:16:51;;;;;;;5.85;2.88;;;;;;;29.03;43.17;99763.38;5032235;28;20037;-94
2021/07/27 09:19:16;;;;;;;5.72;3.00;;;;;;;28.95;44.08;99755.63;5014121;28;20116;-94
2021/07/27 09:21:46;;;;;;;3.70;2.75;;;;;;;29.12;43.33;99761.13;5032032;28;20109;-96
2021/07/27 09:24:20;;;;;;;4.38;2.25;;;;;;;29.32;42.06;99764.19;5014226;28;20021;-95
2021/07/27 09:27:06;;;;;;;3.72;2.33;;;;;;;28.84;41.29;99758.13;5016220;28;20026;-94
2021/07/27 09:29:42;;;;;;;9.00;2.40;;;;;;;29.16;40.84;99756.88;5014203;28;20082;-94
2021/07/27 09:32:15;;;;;;;5.65;2.08;;;;;;;28.19;42.61;99761.06;5014346;28;20025;-95
2021/07/27 09:34:41;;;;;;;4.90;2.15;;;;;;;28.74;41.98;99759.84;5014168;28;20025;-94
2021/07/27 09:37:07;;;;;;;6.88;1.60;;;;;;;29.06;40.77;99760.19;5031905;28;20025;-94
2021/07/27 09:39:35;;;;;;;4.22;1.85;;;;;;;29.16;40.23;99759.56;5031897;28;20072;-95
2021/07/27 09:42:08;;;;;;;4.78;2.13;;;;;;;29.26;40.78;99763.28;5014425;28;20037;-94
2021/07/27 09:44:39;;;;;;;4.97;2.22;;;;;;;29.70;39.01;99759.13;5014046;28;20555;-94
2021/07/27 09:47:06;;;;;;;3.47;1.95;;;;;;;29.82;39.34;99759.91;5014210;28;20483;-94
2021/07/27 09:49:32;;;;;;;3.58;1.80;;;;;;;29.59;39.96;99755.47;5014131;28;20032;-95
2021/07/27 09:51:58;;;;;;;3.88;2.10;;;;;;;29.19;40.23;99746.41;5017922;28;20018;-94
2021/07/27 09:54:25;;;;;;;3.22;1.77;;;;;;;29.66;40.04;99756.09;5018101;28;20021;-94
2021/07/27 09:56:51;;;;;;;4.03;1.95;;;;;;;29.93;40.83;99758.19;5035483;28;20033;-96
2021/07/27 09:59:19;;;;;;;5.47;1.90;;;;;;;29.91;40.96;99758.41;5035403;28;20053;-95
2021/07/27 10:01:56;;;;;;;3.78;1.92;;;;;;;30.28;39.46;99748.94;5035484;28;20403;-95
2021/07/27 10:04:31;;;;;;;4.78;1.85;;;;;;;30.64;38.09;99750.22;5035381;28;20083;-94
2021/07/27 10:06:58;;;;;;;3.13;1.80;;;;;;;30.99;37.84;99741.69;5035421;28;20037;-95
2021/07/27 10:09:25;;;;;;;2.22;1.83;;;;;;;31.39;37.24;99745.06;5035408;28;20025;-95
2021/07/27 10:11:50;;;;;;;2.55;1.55;;;;;;;31.55;37.66;99737.91;5035284;28;20029;-96
2021/07/27 10:14:17;;;;;;;5.53;1.58;;;;;;;32.96;34.83;99735.41;5017313;28;20079;-96
2021/07/27 10:16:44;;;;;;;2.63;1.15;;;;;;;33.64;32.50;99737.13;5035247;28;20553;-94
2021/07/27 10:19:23;;;;;;;4.30;1.70;;;;;;;34.35;32.03;99738.09;5035140;28;20037;-95
2021/07/27 10:22:09;;;;;;;3.75;1.55;;;;;;;35.25;32.94;99738.97;5035106;28;20093;-94
2021/07/27 10:24:50;;;;;;;3.72;1.67;;;;;;;35.93;29.06;99727.22;5034976;28;20029;-95
2021/07/27 10:27:26;;;;;;;4.85;1.42;;;;;;;36.25;29.14;99729.31;5017520;28;20431;-95
2021/07/27 10:29:52;;;;;;;3.90;1.40;;;;;;;35.97;29.17;99730.19;5017324;28;20029;-95
2021/07/27 10:32:19;;;;;;;2.67;1.45;;;;;;;34.22;31.13;99731.31;5034717;28;20029;-96
2021/07/27 10:34:45;;;;;;;5.15;1.42;;;;;;;34.69;32.02;99732.75;5017111;28;20025;-95
2021/07/27 10:37:16;;;;;;;3.38;1.35;;;;;;;34.17;32.85;99734.06;5034883;28;20479;-95
2021/07/27 10:40:08;;;;;;;5.78;1.30;;;;;;;33.51;32.11;99724.88;5017128;28;20029;-95
2021/07/27 10:42:40;;;;;;;5.72;1.33;;;;;;;32.41;32.93;99720.53;5030917;28;20037;-96
2021/07/27 10:45:26;;;;;;;4.63;1.65;;;;;;;32.05;33.89;99731.22;5016827;28;20104;-95
2021/07/27 10:47:54;;;;;;;18.58;2.17;;;;;;;31.28;34.99;99732.47;5016796;28;20056;-95
2021/07/27 10:50:27;;;;;;;4.60;1.40;;;;;;;31.14;35.83;99732.91;5034555;28;20464;-95
2021/07/27 10:53:10;;;;;;;9.32;1.63;;;;;;;31.03;36.73;99736.59;5034649;28;20029;-95
2021/07/27 10:55:43;;;;;;;2.80;1.50;;;;;;;30.17;38.46;99740.66;5016705;28;20029;-94
2021/07/27 10:58:19;;;;;;;2.67;1.30;;;;;;;30.06;38.73;99728.06;5016829;28;20490;-94
2021/07/27 11:00:44;;;;;;;1.45;1.10;;;;;;;30.05;39.10;99729.94;5034529;28;20040;-95
2021/07/27 11:03:09;;;;;;;6.43;1.90;;;;;;;29.63;38.60;99735.78;5016229;28;20025;-94
2021/07/27 11:05:36;;;;;;;7.07;2.17;;;;;;;29.32;39.48;99730.94;5016709;28;20028;-95
2021/07/27 11:08:01;;;;;;;2.60;1.40;;;;;;;29.55;38.96;99733.47;5034639;28;20057;-94
2021/07/27 11:10:29;;;;;;;2.38;1.58;;;;;;;29.45;39.65;99736.84;5016587;28;20064;-94
2021/07/27 11:12:56;;;;;;;2.38;1.27;;;;;;;29.71;39.71;99731.03;5016566;28;20031;-95
2021/07/27 11:15:29;;;;;;;4.78;1.88;;;;;;;29.73;39.32;99734.34;5016429;28;20030;-95
2021/07/27 11:17:58;;;;;;;4.63;1.83;;;;;;;29.27;40.40;99720.84;5016495;28;20056;-95
2021/07/27 11:20:32;;;;;;;4.20;1.58;;;;;;;29.65;39.90;99727.41;5016257;28;20044;-94
2021/07/27 11:23:00;;;;;;;3.33;1.75;;;;;;;30.62;38.24;99720.66;5016152;28;20021;-95
2021/07/27 11:25:27;;;;;;;4.22;2.35;;;;;;;30.60;38.46;99724.72;5016718;28;20049;-94
2021/07/27 11:27:53;;;;;;;3.13;1.80;;;;;;;30.69;37.99;99720.50;5034251;28;20025;-95
2021/07/27 11:30:21;;;;;;;3.40;1.80;;;;;;;30.89;38.12;99716.41;5016223;28;20049;-94
2021/07/27 11:32:51;;;;;;;5.43;1.80;;;;;;;30.63;38.60;99724.22;5016233;28;20022;-95
2021/07/27 11:35:22;;;;;;;3.22;2.00;;;;;;;31.28;37.34;99716.19;5016303;28;20052;-95
2021/07/27 11:38:03;;;;;;;8.15;2.13;;;;;;;31.31;37.30;99719.22;5033981;28;20608;-96
2021/07/27 11:40:30;;;;;;;8.85;2.40;;;;;;;31.10;37.03;99712.78;5033784;28;20060;-94
2021/07/27 11:43:06;;;;;;;6.95;2.00;;;;;;;31.29;36.59;99704.28;5016058;28;20025;-95
2021/07/27 11:45:34;;;;;;;8.13;1.42;;;;;;;31.17;35.95;99702.56;5016032;28;20419;-95
2021/07/27 11:47:59;;;;;;;2.55;1.40;;;;;;;31.39;35.86;99696.22;5015746;28;20037;-95
2021/07/27 11:50:39;;;;;;;2.75;1.40;;;;;;;31.33;35.93;99686.44;5015997;28;20025;-94
2021/07/27 11:53:23;;;;;;;2.38;1.40;;;;;;;31.93;36.34;99689.84;5015466;28;20018;-95